Terminal Aerodrome Forecast
Issued by NWS Boston, MA

Current Version | Previous Version | Text Only | Print | Product List | Glossary On
Versions: 1 2 3 4 5 6 7 8 9 10 11 12 13 14 15 16 17 18 19 20 21 22 23 24 25 26 27 28 29 30 31 32 33 34 35 36 37 38 39 40 41 42 43 44 45 46 47
937 FTUS41 KBOX 282108 AAB TAFBOS TAF AMD KBOS 282108Z 2821/2924 08006KT 3SM -RA SCT004 BKN015 FM282300 09004KT 2SM RA BR OVC004 FM290400 04004KT 2SM BR VCSH OVC003 FM290800 35005KT 3SM BR VCSH OVC003 FM291000 34006KT P6SM OVC008 FM291600 34010G18KT P6SM BKN035 FM292300 33013G26KT P6SM SCT110=

USA.gov is the U.S. government's official web portal to all federal, state and local government web resources and services.